Time;durP1;ratioP1;P1;durP2;ratioP2;P2;SDS_P1;SDS_P2;PMS_P1;PMS_P2;Temp;Humidity;BMP_temperature;BMP_pressure;BME280_temperature;BME280_humidity;BME280_pressure;Samples;Min_cycle;Max_cycle;Signal;HPM_P1;HPM_P2
2022/10/21 00:00:55;;;;;;;9.30;4.25;;;;;;;;;;5007294;28;20034;-44
2022/10/21 00:03:21;;;;;;;9.63;4.38;;;;;;;;;;5008306;28;20037;-48
2022/10/21 00:05:47;;;;;;;29.80;15.65;;;;;;;;;;5007829;28;20040;-45
2022/10/21 00:08:14;;;;;;;29.55;15.43;;;;;;;;;;5005042;28;20042;-45
2022/10/21 00:10:39;;;;;;;18.83;8.85;;;;;;;;;;5004513;28;20018;-44
2022/10/21 00:13:04;;;;;;;24.90;11.00;;;;;;;;;;5007318;28;20045;-47
2022/10/21 00:15:30;;;;;;;24.33;11.15;;;;;;;;;;5007705;28;20049;-44
2022/10/21 00:17:55;;;;;;;22.20;10.20;;;;;;;;;;5006671;28;20091;-45
2022/10/21 00:20:20;;;;;;;16.58;9.68;;;;;;;;;;5007391;28;20034;-46
2022/10/21 00:22:46;;;;;;;24.67;11.93;;;;;;;;;;5006188;28;20042;-44
2022/10/21 00:25:11;;;;;;;26.73;12.13;;;;;;;;;;5004757;28;20033;-46
2022/10/21 00:27:37;;;;;;;17.30;5.90;;;;;;;;;;5006882;28;20057;-45
2022/10/21 00:30:05;;;;;;;10.13;5.10;;;;;;;;;;5003748;28;20777;-45
2022/10/21 00:32:30;;;;;;;12.30;4.72;;;;;;;;;;5015832;28;20050;-46
2022/10/21 00:34:56;;;;;;;16.83;4.53;;;;;;;;;;5007266;28;20101;-44
2022/10/21 00:37:21;;;;;;;12.00;4.40;;;;;;;;;;5007226;28;20044;-46
2022/10/21 00:39:46;;;;;;;12.85;4.40;;;;;;;;;;5006437;28;20026;-44
2022/10/21 00:42:15;;;;;;;14.73;4.82;;;;;;;;;;5004822;28;20050;-45
2022/10/21 00:45:05;;;;;;;12.77;4.20;;;;;;;;;;5004511;28;20432;-45
2022/10/21 00:47:37;;;;;;;8.15;4.30;;;;;;;;;;5006567;28;20053;-44
2022/10/21 00:50:03;;;;;;;14.88;4.32;;;;;;;;;;5004471;28;20026;-47
2022/10/21 00:52:31;;;;;;;12.35;4.90;;;;;;;;;;5007138;28;20058;-46
2022/10/21 00:55:00;;;;;;;12.07;4.63;;;;;;;;;;5004968;28;20036;-48
2022/10/21 00:57:26;;;;;;;14.95;3.72;;;;;;;;;;5006718;28;20111;-46
2022/10/21 00:59:58;;;;;;;16.25;4.57;;;;;;;;;;5006277;28;20394;-44
2022/10/21 01:02:23;;;;;;;;;;;;;;;;;;5006933;28;20065;-45
2022/10/21 01:04:56;;;;;;;18.25;4.93;;;;;;;;;;5007073;28;20417;-44
2022/10/21 01:07:21;;;;;;;14.68;4.43;;;;;;;;;;5006976;28;20045;-44
2022/10/21 01:09:46;;;;;;;19.40;5.95;;;;;;;;;;5002438;28;20027;-44
2022/10/21 01:12:42;;;;;;;15.60;4.50;;;;;;;;;;5007881;28;20056;-44
2022/10/21 01:15:08;;;;;;;18.85;4.40;;;;;;;;;;4943775;28;20070;-43
2022/10/21 01:17:33;;;;;;;12.60;4.60;;;;;;;;;;4944385;28;20452;-44
2022/10/21 01:20:19;;;;;;;9.68;4.32;;;;;;;;;;4943822;28;20044;-46
2022/10/21 01:23:25;;;;;;;13.32;4.45;;;;;;;;;;4945933;28;20040;-44
2022/10/21 01:26:22;;;;;;;13.40;4.68;;;;;;;;;;4892724;29;20047;-45
2022/10/21 01:28:56;;;;;;;13.85;4.90;;;;;;;;;;4834708;29;20172;-44
2022/10/21 01:31:36;;;;;;;10.15;4.47;;;;;;;;;;4834670;29;20042;-44
2022/10/21 01:34:14;;;;;;;17.00;4.90;;;;;;;;;;4834020;29;20046;-45
2022/10/21 01:36:46;;;;;;;12.27;3.97;;;;;;;;;;4837311;29;20149;-45
2022/10/21 01:39:33;;;;;;;18.20;4.63;;;;;;;;;;4834673;29;20106;-44
2022/10/21 01:42:04;;;;;;;18.98;4.70;;;;;;;;;;4834727;29;20046;-44
2022/10/21 01:44:42;;;;;;;12.68;4.35;;;;;;;;;;4836273;29;20065;-46
2022/10/21 01:47:19;;;;;;;11.77;4.03;;;;;;;;;;4833510;29;20061;-44
2022/10/21 01:50:12;;;;;;;10.50;4.03;;;;;;;;;;4834401;29;20042;-44
2022/10/21 01:52:40;;;;;;;22.98;5.13;;;;;;;;;;4844078;29;20050;-46
2022/10/21 01:55:11;;;;;;;12.80;4.68;;;;;;;;;;4852906;29;20156;-43
2022/10/21 01:57:42;;;;;;;12.77;4.57;;;;;;;;;;4849943;29;20082;-46
2022/10/21 02:00:08;;;;;;;19.17;4.50;;;;;;;;;;4852212;29;20106;-44
2022/10/21 02:02:38;;;;;;;19.13;4.78;;;;;;;;;;4904868;29;20175;-44
2022/10/21 02:05:12;;;;;;;15.10;4.70;;;;;;;;;;4946935;28;20060;-44
2022/10/21 02:07:38;;;;;;;9.80;4.57;;;;;;;;;;5008805;28;20042;-43
2022/10/21 02:10:04;;;;;;;19.17;4.72;;;;;;;;;;5009471;28;20049;-44
2022/10/21 02:12:32;;;;;;;12.27;4.68;;;;;;;;;;5007770;28;20081;-44
2022/10/21 02:14:59;;;;;;;17.42;4.45;;;;;;;;;;5009805;28;20033;-43
2022/10/21 02:17:26;;;;;;;9.63;4.85;;;;;;;;;;5009764;28;20045;-44
2022/10/21 02:19:53;;;;;;;16.52;5.13;;;;;;;;;;5007840;28;20034;-45
2022/10/21 02:22:21;;;;;;;18.52;5.18;;;;;;;;;;5008615;28;20399;-44
2022/10/21 02:24:56;;;;;;;14.63;4.22;;;;;;;;;;5008735;28;20029;-44
2022/10/21 02:27:22;;;;;;;14.88;4.15;;;;;;;;;;5006701;28;20030;-43
2022/10/21 02:29:51;;;;;;;14.40;5.30;;;;;;;;;;5009143;28;20116;-44
2022/10/21 02:32:34;;;;;;;15.15;4.55;;;;;;;;;;5008555;28;20057;-44
2022/10/21 02:35:24;;;;;;;14.55;5.03;;;;;;;;;;5009355;28;21212;-43
2022/10/21 02:37:59;;;;;;;11.15;4.88;;;;;;;;;;5008281;28;20167;-43
2022/10/21 02:40:39;;;;;;;13.57;5.60;;;;;;;;;;5018858;28;20446;-44
2022/10/21 02:43:09;;;;;;;13.95;4.05;;;;;;;;;;5007622;28;20050;-44
2022/10/21 02:45:34;;;;;;;14.57;4.63;;;;;;;;;;5007998;28;20498;-44
2022/10/21 02:48:00;;;;;;;11.70;4.47;;;;;;;;;;5009257;28;20120;-44
2022/10/21 02:50:26;;;;;;;15.95;5.28;;;;;;;;;;5005755;28;20100;-44
2022/10/21 02:52:51;;;;;;;11.10;4.60;;;;;;;;;;5008125;28;20056;-44
2022/10/21 02:55:16;;;;;;;17.05;6.43;;;;;;;;;;5008576;28;20041;-44
2022/10/21 02:57:42;;;;;;;14.35;4.88;;;;;;;;;;5008209;28;20046;-44
2022/10/21 03:00:08;;;;;;;21.00;5.28;;;;;;;;;;5008441;28;20061;-44
2022/10/21 03:02:33;;;;;;;15.15;5.43;;;;;;;;;;5007450;28;20103;-44
2022/10/21 03:04:59;;;;;;;16.17;5.45;;;;;;;;;;5008820;28;20072;-44
2022/10/21 03:07:24;;;;;;;20.40;4.80;;;;;;;;;;5009182;28;20518;-45
2022/10/21 03:09:49;;;;;;;9.63;4.70;;;;;;;;;;5005588;28;20435;-44
2022/10/21 03:12:15;;;;;;;22.50;4.82;;;;;;;;;;5007103;28;20034;-44
2022/10/21 03:14:40;;;;;;;15.30;4.60;;;;;;;;;;5008639;28;20056;-44
2022/10/21 03:17:05;;;;;;;14.02;4.55;;;;;;;;;;5005957;28;20042;-44
2022/10/21 03:19:31;;;;;;;10.60;4.95;;;;;;;;;;5008458;28;20116;-46
2022/10/21 03:21:56;;;;;;;10.63;4.88;;;;;;;;;;5008293;28;20566;-44
2022/10/21 03:24:22;;;;;;;14.10;5.07;;;;;;;;;;5008479;28;20589;-46
2022/10/21 03:26:47;;;;;;;20.95;5.68;;;;;;;;;;5003298;28;20077;-44
2022/10/21 03:29:12;;;;;;;20.20;5.28;;;;;;;;;;5006780;28;20125;-44
2022/10/21 03:31:38;;;;;;;13.05;5.00;;;;;;;;;;5006835;28;20042;-43
2022/10/21 03:34:03;;;;;;;14.20;4.80;;;;;;;;;;5007497;28;20026;-44
2022/10/21 03:36:29;;;;;;;15.40;5.00;;;;;;;;;;5008247;28;20052;-44
2022/10/21 03:38:54;;;;;;;10.95;4.60;;;;;;;;;;5008232;28;20463;-45
2022/10/21 03:41:19;;;;;;;9.73;4.55;;;;;;;;;;5008730;28;20073;-44
2022/10/21 03:43:45;;;;;;;16.15;5.05;;;;;;;;;;5003667;28;20038;-44
2022/10/21 03:46:10;;;;;;;15.65;5.25;;;;;;;;;;5005494;28;20041;-44
2022/10/21 03:48:35;;;;;;;9.60;5.10;;;;;;;;;;5006884;28;20030;-43
2022/10/21 03:51:01;;;;;;;9.00;4.97;;;;;;;;;;5006614;28;20068;-46
2022/10/21 03:53:26;;;;;;;11.38;5.50;;;;;;;;;;5006105;28;20036;-44
2022/10/21 03:55:52;;;;;;;12.98;5.25;;;;;;;;;;5006777;28;20038;-45
2022/10/21 03:58:17;;;;;;;11.73;5.20;;;;;;;;;;5008292;28;20109;-44
2022/10/21 04:00:43;;;;;;;13.32;4.93;;;;;;;;;;5006783;28;20048;-44
2022/10/21 04:03:09;;;;;;;21.58;5.50;;;;;;;;;;5004353;28;20050;-44
2022/10/21 04:05:34;;;;;;;13.50;5.72;;;;;;;;;;5005409;28;20150;-44
2022/10/21 04:08:00;;;;;;;12.85;4.88;;;;;;;;;;5003215;28;20038;-46
2022/10/21 04:10:25;;;;;;;18.15;5.50;;;;;;;;;;5008816;28;20036;-44
2022/10/21 04:12:50;;;;;;;18.02;5.68;;;;;;;;;;5004314;28;20030;-45
2022/10/21 04:15:16;;;;;;;19.35;5.75;;;;;;;;;;5006942;28;20054;-48
2022/10/21 04:17:44;;;;;;;18.00;5.72;;;;;;;;;;5007549;28;20426;-44
2022/10/21 04:20:10;;;;;;;16.67;5.38;;;;;;;;;;5006622;28;20062;-43
2022/10/21 04:22:35;;;;;;;14.73;6.00;;;;;;;;;;5005940;28;20085;-46
2022/10/21 04:25:00;;;;;;;15.60;6.32;;;;;;;;;;5007310;28;20029;-45
2022/10/21 04:27:26;;;;;;;16.80;5.70;;;;;;;;;;5005980;28;20084;-44
2022/10/21 04:29:51;;;;;;;8.70;5.07;;;;;;;;;;5007519;28;20038;-44
2022/10/21 04:32:17;;;;;;;14.73;4.88;;;;;;;;;;5004552;28;20094;-44
2022/10/21 04:34:43;;;;;;;16.88;5.93;;;;;;;;;;5006033;28;20039;-43
2022/10/21 04:37:09;;;;;;;17.75;5.55;;;;;;;;;;5006259;28;20049;-46
2022/10/21 04:39:34;;;;;;;9.70;5.07;;;;;;;;;;5005549;28;20387;-44
2022/10/21 04:41:59;;;;;;;13.57;5.50;;;;;;;;;;5002869;28;20034;-45
2022/10/21 04:44:25;;;;;;;11.43;5.28;;;;;;;;;;5003633;28;20172;-44
2022/10/21 04:46:50;;;;;;;12.80;4.75;;;;;;;;;;5005168;28;20402;-44
2022/10/21 04:49:15;;;;;;;11.05;5.40;;;;;;;;;;5003891;28;20037;-44
2022/10/21 04:51:41;;;;;;;18.15;5.10;;;;;;;;;;5005634;28;20037;-44
2022/10/21 04:54:06;;;;;;;17.90;5.57;;;;;;;;;;5008076;28;20072;-43
2022/10/21 04:56:31;;;;;;;17.35;5.35;;;;;;;;;;5008194;28;20046;-44
2022/10/21 04:58:57;;;;;;;16.70;5.32;;;;;;;;;;5011010;28;20072;-45
2022/10/21 05:01:22;;;;;;;10.48;5.32;;;;;;;;;;5008258;28;20439;-45
2022/10/21 05:03:47;;;;;;;17.50;5.40;;;;;;;;;;5009481;28;20026;-44
2022/10/21 05:06:13;;;;;;;15.88;5.25;;;;;;;;;;5007371;28;20096;-45
2022/10/21 05:08:38;;;;;;;13.85;4.38;;;;;;;;;;5010416;28;20028;-45
2022/10/21 05:11:04;;;;;;;13.57;5.03;;;;;;;;;;5005424;28;20026;-44
2022/10/21 05:13:29;;;;;;;13.40;5.18;;;;;;;;;;5009929;28;20390;-44
2022/10/21 05:16:02;;;;;;;11.35;4.75;;;;;;;;;;5009073;28;20080;-43
2022/10/21 05:18:28;;;;;;;11.80;4.93;;;;;;;;;;5000590;28;20030;-48
2022/10/21 05:20:55;;;;;;;14.75;5.18;;;;;;;;;;5005498;28;20037;-45
2022/10/21 05:23:20;;;;;;;15.25;4.45;;;;;;;;;;5004087;28;20112;-44
2022/10/21 05:25:46;;;;;;;18.17;5.30;;;;;;;;;;5001947;28;20184;-44
2022/10/21 05:28:12;;;;;;;15.75;5.43;;;;;;;;;;5006070;28;20046;-43
2022/10/21 05:30:38;;;;;;;11.13;4.82;;;;;;;;;;5006274;28;20034;-43
2022/10/21 05:33:05;;;;;;;17.48;5.07;;;;;;;;;;5003514;28;20053;-43
2022/10/21 05:35:30;;;;;;;15.95;5.22;;;;;;;;;;5000934;28;20064;-44
2022/10/21 05:37:55;;;;;;;13.18;5.57;;;;;;;;;;5005470;28;20065;-44
2022/10/21 05:40:21;;;;;;;13.18;5.22;;;;;;;;;;5006641;28;20066;-45
2022/10/21 05:42:46;;;;;;;21.02;5.13;;;;;;;;;;5007489;28;20054;-44
2022/10/21 05:45:12;;;;;;;15.43;5.35;;;;;;;;;;5008520;28;20275;-44
2022/10/21 05:47:39;;;;;;;12.27;4.55;;;;;;;;;;5002154;28;20041;-47
2022/10/21 05:50:06;;;;;;;14.50;5.00;;;;;;;;;;5002796;28;20092;-48
2022/10/21 05:52:31;;;;;;;11.30;5.45;;;;;;;;;;5001398;28;20038;-43
2022/10/21 05:54:57;;;;;;;11.00;4.75;;;;;;;;;;5001004;28;20077;-47
2022/10/21 05:57:22;;;;;;;11.50;4.50;;;;;;;;;;5004240;28;20053;-46
2022/10/21 05:59:47;;;;;;;18.02;5.10;;;;;;;;;;5000818;28;20042;-47
2022/10/21 06:02:13;;;;;;;15.07;4.93;;;;;;;;;;5006113;28;20545;-44
2022/10/21 06:04:38;;;;;;;12.45;5.28;;;;;;;;;;5009007;28;20022;-45
2022/10/21 06:07:03;;;;;;;11.00;4.43;;;;;;;;;;5004209;28;20665;-45
2022/10/21 06:09:29;;;;;;;15.70;5.15;;;;;;;;;;5005863;28;20117;-45
2022/10/21 06:11:56;;;;;;;15.35;5.15;;;;;;;;;;5005696;28;20037;-44
2022/10/21 06:14:22;;;;;;;10.55;4.47;;;;;;;;;;5006598;28;20567;-44
2022/10/21 06:16:47;;;;;;;10.45;4.53;;;;;;;;;;5000713;28;20116;-44
2022/10/21 06:19:13;;;;;;;13.43;5.10;;;;;;;;;;5005068;28;20037;-44
2022/10/21 06:21:38;;;;;;;14.88;4.68;;;;;;;;;;5006573;28;20095;-44
2022/10/21 06:24:03;;;;;;;18.30;5.13;;;;;;;;;;5011086;28;20040;-47
2022/10/21 06:26:29;;;;;;;17.33;5.68;;;;;;;;;;5007924;28;20085;-45
2022/10/21 06:28:54;;;;;;;13.80;4.43;;;;;;;;;;5008006;28;20037;-44
2022/10/21 06:31:20;;;;;;;39.50;5.47;;;;;;;;;;5003183;28;20041;-44
2022/10/21 06:33:46;;;;;;;13.05;5.13;;;;;;;;;;5002177;28;20034;-45
2022/10/21 06:36:11;;;;;;;14.65;4.53;;;;;;;;;;5007827;28;20446;-44
2022/10/21 06:38:37;;;;;;;16.27;4.90;;;;;;;;;;5006093;28;20497;-47
2022/10/21 06:41:09;;;;;;;18.40;4.85;;;;;;;;;;5003237;28;20038;-45
2022/10/21 06:43:34;;;;;;;16.27;5.20;;;;;;;;;;5004579;28;20095;-44
2022/10/21 06:46:01;;;;;;;14.43;4.28;;;;;;;;;;5004980;28;20057;-44
2022/10/21 06:48:27;;;;;;;18.27;4.10;;;;;;;;;;5002405;28;20026;-44
2022/10/21 06:51:00;;;;;;;17.70;4.95;;;;;;;;;;5005529;28;20096;-43
2022/10/21 06:53:26;;;;;;;21.98;4.47;;;;;;;;;;5007027;28;20026;-44
2022/10/21 06:56:08;;;;;;;18.95;5.28;;;;;;;;;;5007062;28;20420;-45
2022/10/21 06:58:35;;;;;;;16.20;4.95;;;;;;;;;;5004475;28;20057;-44
2022/10/21 07:01:08;;;;;;;24.90;5.30;;;;;;;;;;5003861;28;20036;-45
2022/10/21 07:03:34;;;;;;;12.23;4.10;;;;;;;;;;5002911;28;20026;-45
2022/10/21 07:05:59;;;;;;;16.58;4.22;;;;;;;;;;5002380;28;20471;-46
2022/10/21 07:08:26;;;;;;;15.85;4.95;;;;;;;;;;5007543;28;20025;-45
2022/10/21 07:10:52;;;;;;;17.10;4.45;;;;;;;;;;5005302;28;20502;-44
2022/10/21 07:13:17;;;;;;;22.55;4.78;;;;;;;;;;5005563;28;20038;-44
2022/10/21 07:15:43;;;;;;;23.65;5.45;;;;;;;;;;5006079;28;20555;-44
2022/10/21 07:18:08;;;;;;;25.08;5.03;;;;;;;;;;5002071;28;20038;-44
2022/10/21 07:20:33;;;;;;;19.38;4.82;;;;;;;;;;5004790;28;20062;-44
2022/10/21 07:22:59;;;;;;;22.42;4.78;;;;;;;;;;5005657;28;20446;-45
2022/10/21 07:25:24;;;;;;;20.70;4.95;;;;;;;;;;5009381;28;20025;-44
2022/10/21 07:27:49;;;;;;;36.60;5.10;;;;;;;;;;5005161;28;20727;-47
2022/10/21 07:30:15;;;;;;;69.10;6.88;;;;;;;;;;5002471;28;20030;-44
2022/10/21 07:32:40;;;;;;;20.20;4.13;;;;;;;;;;5004514;28;20523;-47
2022/10/21 07:35:06;;;;;;;28.33;5.28;;;;;;;;;;5002138;28;22773;-46
2022/10/21 07:37:31;;;;;;;21.40;4.60;;;;;;;;;;5001570;28;20080;-44
2022/10/21 07:39:56;;;;;;;19.73;4.70;;;;;;;;;;5005636;28;20526;-44
2022/10/21 07:42:23;;;;;;;15.30;4.22;;;;;;;;;;5004729;28;20054;-45
2022/10/21 07:44:51;;;;;;;14.68;4.28;;;;;;;;;;5003352;28;20052;-45
2022/10/21 07:47:17;;;;;;;15.65;4.80;;;;;;;;;;5003965;28;20042;-43
2022/10/21 07:49:43;;;;;;;23.23;5.28;;;;;;;;;;5007706;28;20487;-44
2022/10/21 07:52:08;;;;;;;19.20;4.95;;;;;;;;;;5004330;28;20415;-43
2022/10/21 07:54:33;;;;;;;16.17;5.22;;;;;;;;;;5004555;28;20022;-44
2022/10/21 07:56:59;;;;;;;24.77;5.15;;;;;;;;;;5006270;28;20034;-43
2022/10/21 07:59:24;;;;;;;22.25;5.20;;;;;;;;;;5002921;28;20044;-44
2022/10/21 08:01:51;;;;;;;34.00;5.75;;;;;;;;;;4996252;28;20042;-44
2022/10/21 08:04:20;;;;;;;14.32;4.55;;;;;;;;;;5005943;28;20022;-44
2022/10/21 08:06:47;;;;;;;14.55;4.80;;;;;;;;;;5007162;28;20537;-44
2022/10/21 08:09:14;;;;;;;31.90;5.15;;;;;;;;;;5004514;28;20033;-44
2022/10/21 08:11:40;;;;;;;17.45;4.18;;;;;;;;;;5004648;28;22043;-44
2022/10/21 08:14:07;;;;;;;15.85;4.28;;;;;;;;;;5005604;28;20034;-43
2022/10/21 08:16:33;;;;;;;15.82;4.70;;;;;;;;;;5002303;28;20045;-44
2022/10/21 08:18:59;;;;;;;16.08;4.53;;;;;;;;;;5005170;28;20037;-44
2022/10/21 08:21:26;;;;;;;17.30;4.70;;;;;;;;;;5006518;28;20610;-44
2022/10/21 08:23:51;;;;;;;15.55;5.00;;;;;;;;;;5003681;28;20037;-44
2022/10/21 08:26:17;;;;;;;21.98;5.00;;;;;;;;;;5000993;28;20491;-44
2022/10/21 08:28:42;;;;;;;16.83;5.32;;;;;;;;;;5003090;28;20040;-44
2022/10/21 08:31:11;;;;;;;13.40;5.05;;;;;;;;;;5002918;28;20510;-43
2022/10/21 08:33:37;;;;;;;10.15;4.80;;;;;;;;;;5006364;28;20044;-43
2022/10/21 08:36:18;;;;;;;12.18;4.88;;;;;;;;;;5009805;28;20041;-46
2022/10/21 08:38:44;;;;;;;17.33;4.60;;;;;;;;;;5008111;28;20017;-44
2022/10/21 08:41:27;;;;;;;20.45;5.30;;;;;;;;;;5007478;28;20041;-45
2022/10/21 08:43:57;;;;;;;13.73;5.82;;;;;;;;;;4966936;28;20364;-45
2022/10/21 08:46:30;;;;;;;10.63;4.68;;;;;;;;;;4969153;28;20043;-45
2022/10/21 08:49:13;;;;;;;14.40;4.82;;;;;;;;;;4967120;28;20078;-44
2022/10/21 08:51:45;;;;;;;12.55;4.78;;;;;;;;;;4970415;28;20070;-43
2022/10/21 08:54:38;;;;;;;19.42;5.65;;;;;;;;;;4966263;28;20029;-44
2022/10/21 08:57:04;;;;;;;20.75;6.43;;;;;;;;;;4969885;28;20073;-44
2022/10/21 08:59:29;;;;;;;16.35;5.07;;;;;;;;;;4969559;28;20035;-44
2022/10/21 09:02:17;;;;;;;15.63;5.45;;;;;;;;;;4969706;28;20046;-44
2022/10/21 09:04:46;;;;;;;12.20;5.28;;;;;;;;;;4968539;28;20039;-44
2022/10/21 09:07:42;;;;;;;18.88;5.43;;;;;;;;;;4966529;28;20935;-47
2022/10/21 09:10:16;;;;;;;16.20;5.13;;;;;;;;;;4966236;28;20050;-44
2022/10/21 09:13:03;;;;;;;17.40;5.18;;;;;;;;;;4967693;28;20054;-44
2022/10/21 09:15:50;;;;;;;14.48;4.90;;;;;;;;;;4968249;28;20022;-43
2022/10/21 09:18:37;;;;;;;29.85;6.22;;;;;;;;;;4966984;28;20089;-44
2022/10/21 09:21:21;;;;;;;20.45;5.85;;;;;;;;;;4967842;28;20044;-44
2022/10/21 09:24:01;;;;;;;12.50;4.55;;;;;;;;;;4969924;28;20138;-44
2022/10/21 09:26:40;;;;;;;14.20;5.18;;;;;;;;;;4967179;28;20106;-44
2022/10/21 09:29:31;;;;;;;21.30;5.32;;;;;;;;;;4968757;28;20558;-45
2022/10/21 09:32:07;;;;;;;15.80;5.20;;;;;;;;;;4968371;28;20039;-44
2022/10/21 09:34:47;;;;;;;20.67;5.53;;;;;;;;;;4965636;28;20034;-47
2022/10/21 09:37:44;;;;;;;14.70;5.30;;;;;;;;;;4966639;28;20527;-44
2022/10/21 09:40:22;;;;;;;15.93;5.38;;;;;;;;;;4970889;28;20056;-44
2022/10/21 09:42:50;;;;;;;20.65;5.80;;;;;;;;;;4993717;28;20085;-44
2022/10/21 09:45:21;;;;;;;17.00;6.00;;;;;;;;;;5012653;28;20037;-46
2022/10/21 09:47:54;;;;;;;16.85;5.60;;;;;;;;;;5009704;28;20048;-44
2022/10/21 09:50:20;;;;;;;21.95;6.10;;;;;;;;;;5008190;28;20052;-44
2022/10/21 09:52:55;;;;;;;20.15;5.82;;;;;;;;;;5009464;28;20045;-43
2022/10/21 09:55:21;;;;;;;18.00;5.35;;;;;;;;;;5010123;28;20076;-44
2022/10/21 09:58:22;;;;;;;14.45;5.65;;;;;;;;;;5010591;28;20034;-44
2022/10/21 10:00:49;;;;;;;22.95;6.38;;;;;;;;;;5009046;28;20129;-43
2022/10/21 10:03:36;;;;;;;18.67;5.38;;;;;;;;;;5009768;28;20045;-44
2022/10/21 10:06:04;;;;;;;15.80;6.00;;;;;;;;;;5008468;28;20069;-44
2022/10/21 10:08:29;;;;;;;14.25;5.93;;;;;;;;;;5006370;28;20029;-44
2022/10/21 10:11:08;;;;;;;18.75;5.55;;;;;;;;;;5004485;28;20033;-45
2022/10/21 10:13:38;;;;;;;22.13;6.32;;;;;;;;;;5003351;28;20038;-44
2022/10/21 10:16:23;;;;;;;14.15;5.20;;;;;;;;;;5005458;28;20041;-44
2022/10/21 10:18:51;;;;;;;13.52;5.30;;;;;;;;;;5006208;28;20099;-44
2022/10/21 10:21:18;;;;;;;17.77;6.07;;;;;;;;;;5008129;28;20076;-44
2022/10/21 10:23:54;;;;;;;16.60;5.30;;;;;;;;;;5007769;28;20379;-44
2022/10/21 10:26:29;;;;;;;19.48;5.93;;;;;;;;;;5010759;28;20498;-44
2022/10/21 10:29:02;;;;;;;19.27;5.63;;;;;;;;;;5009001;28;20129;-44
2022/10/21 10:31:31;;;;;;;22.05;5.47;;;;;;;;;;5007065;28;20403;-45
2022/10/21 10:34:04;;;;;;;22.13;5.72;;;;;;;;;;5002442;28;20470;-46
2022/10/21 10:36:38;;;;;;;23.27;5.38;;;;;;;;;;5007472;28;20102;-44
2022/10/21 10:39:22;;;;;;;18.50;5.88;;;;;;;;;;5004247;28;20076;-44
2022/10/21 10:41:50;;;;;;;18.92;6.15;;;;;;;;;;5000966;28;20057;-44
2022/10/21 10:44:40;;;;;;;15.95;5.85;;;;;;;;;;5004230;28;20052;-46
2022/10/21 10:47:16;;;;;;;19.92;5.50;;;;;;;;;;4994286;28;20049;-44
2022/10/21 10:49:42;;;;;;;24.75;6.32;;;;;;;;;;5004535;28;20100;-44
2022/10/21 10:52:10;;;;;;;24.30;5.72;;;;;;;;;;5006271;28;20061;-44
2022/10/21 10:54:38;;;;;;;23.27;4.78;;;;;;;;;;5005149;28;20034;-45
2022/10/21 10:57:17;;;;;;;15.77;5.90;;;;;;;;;;5007120;28;20049;-44
2022/10/21 11:00:05;;;;;;;23.27;6.25;;;;;;;;;;5004430;28;20044;-43
2022/10/21 11:02:54;;;;;;;15.88;5.65;;;;;;;;;;5006597;28;20057;-44
2022/10/21 11:05:36;;;;;;;17.27;5.32;;;;;;;;;;5007285;28;20033;-44
2022/10/21 11:08:23;;;;;;;17.17;5.63;;;;;;;;;;5005010;28;20042;-44
2022/10/21 11:11:00;;;;;;;17.23;4.72;;;;;;;;;;5005696;28;20487;-44
2022/10/21 11:13:27;;;;;;;17.30;5.90;;;;;;;;;;5005877;28;20554;-45
2022/10/21 11:16:28;;;;;;;17.10;5.32;;;;;;;;;;5003233;28;20121;-45
2022/10/21 11:19:02;;;;;;;20.95;5.28;;;;;;;;;;5006163;28;20390;-44
2022/10/21 11:21:47;;;;;;;23.95;5.78;;;;;;;;;;5004717;28;20042;-44
2022/10/21 11:24:30;;;;;;;22.90;6.30;;;;;;;;;;5006633;28;20037;-47
2022/10/21 11:27:33;;;;;;;23.10;4.82;;;;;;;;;;5001531;28;20108;-44
2022/10/21 11:30:10;;;;;;;22.35;5.68;;;;;;;;;;5003011;28;20113;-45
2022/10/21 11:32:42;;;;;;;20.25;5.00;;;;;;;;;;5005430;28;20651;-47
2022/10/21 11:35:23;;;;;;;25.15;5.10;;;;;;;;;;5006141;28;20041;-46
2022/10/21 11:38:07;;;;;;;23.60;5.70;;;;;;;;;;5007035;28;20124;-45
2022/10/21 11:40:33;;;;;;;18.17;4.78;;;;;;;;;;5005903;28;20490;-44
2022/10/21 11:43:08;;;;;;;23.55;5.18;;;;;;;;;;5004540;28;20049;-45
2022/10/21 11:45:56;;;;;;;22.50;4.82;;;;;;;;;;5005808;28;20054;-47
2022/10/21 11:48:21;;;;;;;24.55;5.18;;;;;;;;;;5007638;28;20779;-44
2022/10/21 11:51:10;;;;;;;19.40;5.78;;;;;;;;;;5006721;28;20049;-44
2022/10/21 11:53:54;;;;;;;27.42;5.63;;;;;;;;;;5005767;28;20041;-44
2022/10/21 11:56:22;;;;;;;17.20;5.18;;;;;;;;;;5005431;28;20506;-44
2022/10/21 11:59:15;;;;;;;37.40;5.40;;;;;;;;;;5003135;28;20040;-44
2022/10/21 12:01:53;;;;;;;28.98;5.82;;;;;;;;;;5003986;28;20100;-44
2022/10/21 12:04:32;;;;;;;26.83;5.70;;;;;;;;;;5005124;28;20029;-44
2022/10/21 12:07:06;;;;;;;23.42;5.32;;;;;;;;;;5004401;28;20057;-46
2022/10/21 12:09:39;;;;;;;31.15;6.00;;;;;;;;;;5004467;28;20433;-44
2022/10/21 12:12:17;;;;;;;26.17;5.40;;;;;;;;;;5004249;28;20054;-44
2022/10/21 12:14:51;;;;;;;20.35;5.57;;;;;;;;;;5002055;28;20486;-44
2022/10/21 12:17:19;;;;;;;18.67;4.57;;;;;;;;;;5002550;28;20491;-44
2022/10/21 12:19:56;;;;;;;28.27;6.32;;;;;;;;;;5003933;28;20038;-44
2022/10/21 12:22:24;;;;;;;24.10;5.57;;;;;;;;;;5004802;28;20066;-44
2022/10/21 12:25:23;;;;;;;39.42;6.00;;;;;;;;;;5003709;28;20541;-44
2022/10/21 12:27:55;;;;;;;23.38;6.07;;;;;;;;;;4999643;28;20034;-44
2022/10/21 12:30:28;;;;;;;39.70;6.47;;;;;;;;;;5003999;28;20029;-45
2022/10/21 12:33:15;;;;;;;36.78;6.32;;;;;;;;;;5001496;28;20123;-44
2022/10/21 12:35:49;;;;;;;27.45;6.70;;;;;;;;;;5006561;28;20475;-44
2022/10/21 12:38:37;;;;;;;35.38;6.78;;;;;;;;;;5003437;28;20506;-44
2022/10/21 12:41:31;;;;;;;28.10;6.00;;;;;;;;;;5003939;28;20065;-44
2022/10/21 12:43:56;;;;;;;26.33;6.57;;;;;;;;;;5005143;28;20030;-44
2022/10/21 12:46:25;;;;;;;20.58;5.75;;;;;;;;;;5004336;28;20100;-45
2022/10/21 12:48:51;;;;;;;32.70;7.00;;;;;;;;;;5004958;28;20148;-44
2022/10/21 12:51:26;;;;;;;32.22;5.95;;;;;;;;;;5004088;28;20605;-44
2022/10/21 12:54:03;;;;;;;31.02;6.18;;;;;;;;;;5004956;28;20029;-44
2022/10/21 12:56:44;;;;;;;22.20;5.70;;;;;;;;;;5003655;28;20503;-44
2022/10/21 12:59:30;;;;;;;585.23;56.23;;;;;;;;;;5003842;28;20104;-44
2022/10/21 13:02:05;;;;;;;744.75;73.90;;;;;;;;;;5004365;28;20100;-44
2022/10/21 13:04:33;;;;;;;106.68;12.88;;;;;;;;;;5016256;28;20394;-44
2022/10/21 13:07:00;;;;;;;26.98;6.30;;;;;;;;;;5004553;28;20042;-44
2022/10/21 13:09:37;;;;;;;39.10;7.00;;;;;;;;;;5005814;28;20018;-44
2022/10/21 13:12:09;;;;;;;37.55;6.72;;;;;;;;;;5005985;28;20139;-44
2022/10/21 13:15:09;;;;;;;34.10;6.20;;;;;;;;;;5005487;28;20033;-45
2022/10/21 13:17:55;;;;;;;177.63;16.17;;;;;;;;;;5004217;28;20165;-44
2022/10/21 13:20:20;;;;;;;100.05;12.05;;;;;;;;;;5005423;28;20490;-45
2022/10/21 13:22:48;;;;;;;39.60;7.45;;;;;;;;;;5009304;28;20050;-44
2022/10/21 13:25:27;;;;;;;30.75;6.15;;;;;;;;;;5006983;28;20572;-46
2022/10/21 13:28:04;;;;;;;29.45;5.50;;;;;;;;;;5007707;28;20076;-43
2022/10/21 13:30:33;;;;;;;41.40;8.80;;;;;;;;;;5006336;28;20030;-44
2022/10/21 13:33:16;;;;;;;34.50;6.63;;;;;;;;;;5004690;28;20052;-44
2022/10/21 13:35:48;;;;;;;42.92;7.70;;;;;;;;;;5008952;28;20035;-44
2022/10/21 13:38:22;;;;;;;27.95;6.88;;;;;;;;;;5008235;28;20131;-44
2022/10/21 13:40:50;;;;;;;27.92;6.90;;;;;;;;;;5006886;28;20037;-44
2022/10/21 13:43:27;;;;;;;33.78;6.40;;;;;;;;;;5008280;28;20580;-44
2022/10/21 13:46:03;;;;;;;23.83;6.20;;;;;;;;;;5006686;28;20375;-44
2022/10/21 13:48:40;;;;;;;33.40;5.95;;;;;;;;;;5003719;28;20700;-44
2022/10/21 13:51:17;;;;;;;41.80;6.13;;;;;;;;;;5004925;28;20034;-44
2022/10/21 13:53:44;;;;;;;37.30;7.40;;;;;;;;;;5008853;28;20175;-44
2022/10/21 13:56:20;;;;;;;35.65;6.60;;;;;;;;;;5007075;28;20538;-44
2022/10/21 13:58:46;;;;;;;38.83;6.68;;;;;;;;;;5003350;28;20034;-45
2022/10/21 14:01:20;;;;;;;37.35;7.13;;;;;;;;;;5005683;28;20041;-45
2022/10/21 14:03:46;;;;;;;32.08;6.50;;;;;;;;;;5006790;28;20076;-44
2022/10/21 14:06:30;;;;;;;29.70;6.57;;;;;;;;;;5007501;28;20077;-43
2022/10/21 14:09:02;;;;;;;30.02;7.38;;;;;;;;;;5006274;28;20030;-44
2022/10/21 14:11:31;;;;;;;33.33;7.25;;;;;;;;;;5005603;28;20049;-46
2022/10/21 14:14:01;;;;;;;39.03;7.88;;;;;;;;;;5005725;28;20512;-44
2022/10/21 14:16:33;;;;;;;29.42;6.40;;;;;;;;;;5005243;28;20133;-45
2022/10/21 14:19:03;;;;;;;36.75;7.35;;;;;;;;;;5007038;28;20037;-46
2022/10/21 14:21:35;;;;;;;35.42;7.10;;;;;;;;;;5002510;28;20402;-44
2022/10/21 14:24:02;;;;;;;31.85;7.22;;;;;;;;;;5006162;28;20022;-44
2022/10/21 14:26:31;;;;;;;30.98;6.75;;;;;;;;;;5003942;28;20413;-44
2022/10/21 14:28:58;;;;;;;30.80;6.93;;;;;;;;;;5006885;28;20445;-47
2022/10/21 14:31:24;;;;;;;47.65;7.63;;;;;;;;;;5004714;28;20073;-44
2022/10/21 14:33:49;;;;;;;25.83;6.43;;;;;;;;;;5007239;28;20065;-45
2022/10/21 14:36:24;;;;;;;33.53;7.65;;;;;;;;;;5001337;28;21042;-44
2022/10/21 14:39:00;;;;;;;38.75;8.93;;;;;;;;;;5003375;28;20065;-45
2022/10/21 14:41:43;;;;;;;30.88;6.82;;;;;;;;;;4998636;28;20057;-45
2022/10/21 14:44:21;;;;;;;31.42;7.07;;;;;;;;;;5002736;28;20080;-44
2022/10/21 14:46:49;;;;;;;31.55;6.40;;;;;;;;;;5001238;28;20395;-44
2022/10/21 14:49:29;;;;;;;50.35;7.47;;;;;;;;;;5002454;28;20892;-44
2022/10/21 14:52:00;;;;;;;27.48;6.75;;;;;;;;;;5003302;28;20046;-44
2022/10/21 14:54:41;;;;;;;33.50;7.35;;;;;;;;;;5003523;28;20044;-44